Time;durP1;ratioP1;P1;durP2;ratioP2;P2;SDS_P1;SDS_P2;PMS_P1;PMS_P2;Temp;Humidity;BMP_temperature;BMP_pressure;BME280_temperature;BME280_humidity;BME280_pressure;Samples;Min_cycle;Max_cycle;Signal;HPM_P1;HPM_P2
2021/12/17 00:03:07;;;;;;;49.42;20.45;;;11.30;99.90;;;;;;5034097;28;20025;-88
2021/12/17 00:07:05;;;;;;;38.50;18.08;;;11.30;99.90;;;;;;5033808;28;20361;-89
2021/12/17 00:09:31;;;;;;;34.95;17.05;;;11.20;99.90;;;;;;5033580;28;20480;-89
2021/12/17 00:11:56;;;;;;;36.70;17.52;;;11.20;99.90;;;;;;5033815;28;20040;-89
2021/12/17 00:14:27;;;;;;;35.60;17.52;;;11.10;99.80;;;;;;5033742;28;20033;-86
2021/12/17 00:16:56;;;;;;;38.70;19.15;;;10.90;99.90;;;;;;5032930;28;20037;-87
2021/12/17 00:49:27;;;;;;;35.90;18.80;;;11.00;99.90;;;;;;5033779;28;20064;-88
2021/12/17 00:51:58;;;;;;;38.57;18.80;;;11.10;99.90;;;;;;4993831;28;1137506;-88
2021/12/17 00:54:38;;;;;;;37.88;17.55;;;11.10;99.90;;;;;;5034259;28;20029;-89
2021/12/17 00:57:06;;;;;;;34.95;16.20;;;11.00;99.90;;;;;;5034423;28;20040;-90
2021/12/17 00:59:44;;;;;;;28.70;15.55;;;11.00;99.90;;;;;;5034513;28;20030;-89
2021/12/17 01:02:15;;;;;;;38.92;18.48;;;11.00;99.90;;;;;;5034498;28;20473;-89
2021/12/17 01:04:44;;;;;;;40.60;19.50;;;10.90;99.90;;;;;;5034566;28;20065;-90
2021/12/17 01:07:12;;;;;;;45.90;20.25;;;10.80;99.90;;;;;;5034465;28;20037;-90
2021/12/17 01:09:38;;;;;;;42.25;19.35;;;10.60;99.90;;;;;;5034395;28;20472;-90
2021/12/17 01:12:05;;;;;;;42.65;20.00;;;10.50;99.90;;;;;;5034542;28;20097;-90
2021/12/17 01:14:32;;;;;;;44.85;21.30;;;10.50;99.90;;;;;;5034356;28;20049;-90
2021/12/17 01:16:59;;;;;;;43.05;19.05;;;10.60;99.90;;;;;;5034466;28;20105;-89
2021/12/17 01:20:06;;;;;;;45.65;20.98;;;10.70;99.90;;;;;;5034067;28;20461;-89
2021/12/17 01:25:07;;;;;;;50.80;21.20;;;10.80;99.90;;;;;;5057201;28;20017;-88
2021/12/17 01:35:46;;;;;;;40.72;19.05;;;10.90;99.90;;;;;;5037355;28;20072;-87
2021/12/17 01:44:00;;;;;;;37.80;16.80;;;11.10;99.90;;;;;;5028096;28;20046;-87
2021/12/17 01:46:31;;;;;;;39.55;16.48;;;11.10;99.90;;;;;;5036848;28;20049;-88
2021/12/17 01:59:17;;;;;;;30.50;14.85;;;10.90;99.90;;;;;;5036560;28;20040;-87
2021/12/17 01:59:42;;;;;;;28.33;13.75;;;10.80;99.90;;;;;;5035945;28;20022;-88
2021/12/17 02:02:09;;;;;;;27.00;13.73;;;10.80;99.90;;;;;;5036497;28;20044;-87
2021/12/17 02:04:36;;;;;;;27.45;13.95;;;10.90;99.90;;;;;;5036570;28;20018;-89
2021/12/17 02:07:03;;;;;;;29.30;14.13;;;10.90;99.90;;;;;;5037118;28;20068;-89
2021/12/17 02:10:35;;;;;;;27.52;14.18;;;10.90;99.90;;;;;;5036800;28;20021;-89
2021/12/17 02:20:39;;;;;;;25.92;12.45;;;10.60;99.90;;;;;;5050341;28;20048;-87
2021/12/17 02:28:44;;;;;;;;;;;10.60;99.90;;;;;;5061665;28;20014;-87
2021/12/17 02:29:22;;;;;;;25.42;12.43;;;10.80;99.90;;;;;;5036525;28;20097;-88
2021/12/17 02:31:58;;;;;;;25.88;11.93;;;10.80;99.90;;;;;;5036192;28;20053;-88
2021/12/17 02:37:07;;;;;;;26.88;13.55;;;10.90;99.90;;;;;;5036586;28;20473;-89
2021/12/17 02:47:35;;;;;;;29.45;13.95;;;10.90;99.90;;;;;;5035958;28;20044;-88
2021/12/17 02:50:01;;;;;;;26.23;13.85;;;11.00;99.90;;;;;;5036118;28;20080;-89
2021/12/17 02:52:29;;;;;;;30.00;14.70;;;11.00;99.90;;;;;;5036094;28;20076;-89
2021/12/17 02:54:57;;;;;;;32.03;14.40;;;11.00;99.90;;;;;;5036258;28;20033;-89
2021/12/17 02:57:24;;;;;;;31.77;14.80;;;10.90;99.90;;;;;;5036295;28;20021;-89
2021/12/17 02:59:51;;;;;;;30.55;14.82;;;10.90;99.90;;;;;;5035978;28;20396;-88
2021/12/17 03:02:19;;;;;;;24.98;12.90;;;10.80;99.90;;;;;;5036156;28;20029;-89
2021/12/17 03:04:44;;;;;;;28.05;14.73;;;10.80;99.90;;;;;;5035835;28;20071;-88
2021/12/17 03:07:12;;;;;;;28.08;13.65;;;10.90;99.90;;;;;;5035241;28;20049;-89
2021/12/17 03:12:38;;;;;;;29.23;14.30;;;10.90;99.90;;;;;;5035643;28;20027;-87
2021/12/17 03:15:16;;;;;;;26.13;13.77;;;11.00;99.90;;;;;;5035894;28;20036;-88
2021/12/17 03:23:39;;;;;;;25.25;11.88;;;11.10;99.90;;;;;;5023813;28;20029;-88
2021/12/17 03:26:07;;;;;;;24.33;12.77;;;11.20;99.90;;;;;;5035628;28;20033;-88
2021/12/17 03:28:34;;;;;;;26.33;12.63;;;11.20;99.90;;;;;;5035118;28;20395;-87
2021/12/17 03:31:00;;;;;;;26.42;13.35;;;11.20;99.90;;;;;;5035303;28;20079;-87
2021/12/17 03:33:26;;;;;;;24.77;12.38;;;11.20;99.90;;;;;;5035387;28;20038;-87
2021/12/17 03:35:52;;;;;;;26.75;13.02;;;11.20;99.90;;;;;;5034975;28;20025;-88
2021/12/17 03:38:19;;;;;;;26.48;13.68;;;11.20;99.90;;;;;;5034996;28;20393;-89
2021/12/17 03:40:46;;;;;;;30.92;14.05;;;11.20;99.80;;;;;;5035295;28;20022;-87
2021/12/17 03:43:13;;;;;;;28.25;13.65;;;11.20;99.80;;;;;;5034765;28;20131;-88
2021/12/17 03:45:40;;;;;;;24.73;13.50;;;11.20;99.90;;;;;;5035071;28;20033;-88
2021/12/17 03:48:06;;;;;;;28.55;13.75;;;11.20;99.90;;;;;;5035210;28;20033;-88
2021/12/17 03:50:34;;;;;;;27.17;13.15;;;11.20;99.90;;;;;;5035167;28;20111;-87
2021/12/17 03:53:00;;;;;;;25.77;13.55;;;11.20;99.90;;;;;;5034134;28;20054;-85
2021/12/17 03:55:26;;;;;;;30.52;14.55;;;11.20;99.90;;;;;;5035341;28;20032;-88
2021/12/17 03:57:51;;;;;;;32.45;15.20;;;11.20;99.90;;;;;;5034638;28;20029;-88
2021/12/17 04:00:17;;;;;;;27.00;13.90;;;11.20;99.90;;;;;;5034871;28;20037;-88
2021/12/17 04:02:44;;;;;;;31.00;14.35;;;11.20;99.90;;;;;;5034990;28;20484;-87
2021/12/17 04:05:09;;;;;;;31.02;14.80;;;11.20;99.90;;;;;;5034511;28;20030;-87
2021/12/17 04:07:35;;;;;;;31.85;14.48;;;11.20;99.90;;;;;;5034675;28;20040;-88
2021/12/17 04:10:00;;;;;;;32.25;14.48;;;11.20;99.90;;;;;;5034841;28;20525;-88
2021/12/17 04:12:41;;;;;;;29.17;14.95;;;11.20;99.90;;;;;;5034957;28;20476;-88
2021/12/17 04:15:08;;;;;;;29.45;14.63;;;11.20;99.90;;;;;;5052346;28;20021;-88
2021/12/17 04:17:41;;;;;;;32.78;15.13;;;11.20;99.90;;;;;;5057727;28;20017;-88
2021/12/17 04:20:08;;;;;;;32.00;15.02;;;11.20;99.90;;;;;;5034574;28;20030;-88
2021/12/17 04:22:33;;;;;;;28.88;14.45;;;11.20;99.90;;;;;;5034070;28;20026;-87
2021/12/17 04:24:59;;;;;;;30.08;13.93;;;11.20;99.90;;;;;;5034087;28;20044;-87
2021/12/17 04:27:24;;;;;;;29.92;14.43;;;11.20;99.90;;;;;;5033780;28;20508;-88
2021/12/17 04:29:51;;;;;;;30.67;15.07;;;11.20;99.90;;;;;;5033977;28;20105;-87
2021/12/17 04:32:17;;;;;;;30.27;13.55;;;11.20;99.90;;;;;;5034153;28;20085;-87
2021/12/17 04:34:43;;;;;;;34.90;14.57;;;11.20;99.90;;;;;;5034553;28;20060;-87
2021/12/17 04:37:09;;;;;;;30.20;13.80;;;11.20;99.90;;;;;;5034296;28;20401;-88
2021/12/17 04:39:35;;;;;;;28.88;13.35;;;11.20;99.90;;;;;;5034399;28;20017;-88
2021/12/17 04:42:11;;;;;;;28.60;13.13;;;11.30;99.90;;;;;;5033776;28;20477;-89
2021/12/17 04:44:41;;;;;;;27.75;14.05;;;11.30;99.90;;;;;;5033993;28;20464;-89
2021/12/17 04:57:53;;;;;;;27.60;12.63;;;11.30;99.90;;;;;;5033867;28;20438;-89
2021/12/17 05:00:26;;;;;;;26.58;12.60;;;11.20;99.90;;;;;;5033886;28;20033;-88
2021/12/17 05:02:55;;;;;;;;;;;11.20;99.90;;;;;;5034491;28;20088;-88
2021/12/17 05:05:28;;;;;;;29.20;12.32;;;11.20;99.90;;;;;;5037185;28;19909;-89
2021/12/17 05:07:59;;;;;;;25.90;12.90;;;11.20;99.80;;;;;;5038139;28;20485;-89
2021/12/17 05:18:28;;;;;;;26.98;12.25;;;11.20;99.80;;;;;;5037967;28;20044;-89
2021/12/17 05:20:59;;;;;;;24.60;12.77;;;11.20;99.90;;;;;;5037870;28;20022;-89
2021/12/17 05:23:31;;;;;;;26.92;12.80;;;11.20;99.90;;;;;;5037954;28;20424;-89
2021/12/17 05:25:58;;;;;;;29.75;14.45;;;11.20;99.90;;;;;;5037578;28;20021;-89
2021/12/17 05:28:24;;;;;;;25.88;12.75;;;11.20;99.90;;;;;;5037530;28;20022;-89
2021/12/17 05:30:50;;;;;;;27.08;12.20;;;11.20;99.90;;;;;;5037208;28;20021;-89
2021/12/17 05:33:18;;;;;;;25.75;11.82;;;11.20;99.90;;;;;;5037894;28;20120;-89
2021/12/17 05:35:45;;;;;;;30.40;13.77;;;11.20;99.90;;;;;;5037524;28;20029;-87
2021/12/17 05:38:11;;;;;;;30.65;13.30;;;11.20;99.90;;;;;;5036906;28;20051;-88
2021/12/17 05:40:38;;;;;;;27.35;12.30;;;11.20;99.90;;;;;;5037334;28;20029;-88
2021/12/17 05:43:06;;;;;;;27.48;12.30;;;11.20;99.90;;;;;;5037232;28;20044;-88
2021/12/17 05:45:47;;;;;;;28.52;13.23;;;11.20;99.90;;;;;;5037485;28;20424;-88
2021/12/17 05:48:14;;;;;;;30.05;14.27;;;11.20;99.90;;;;;;5036919;28;20041;-88
2021/12/17 05:50:42;;;;;;;36.15;16.02;;;11.30;99.90;;;;;;5037277;28;20136;-87
2021/12/17 05:53:08;;;;;;;34.03;15.15;;;11.30;99.90;;;;;;5036944;28;20050;-88
2021/12/17 05:55:35;;;;;;;28.13;13.52;;;11.20;99.90;;;;;;5037308;28;20071;-89
2021/12/17 05:58:01;;;;;;;31.17;14.40;;;11.30;99.90;;;;;;5037705;28;20026;-90
2021/12/17 06:00:31;;;;;;;34.55;15.65;;;11.30;99.90;;;;;;5037270;28;20021;-89
2021/12/17 06:02:58;;;;;;;41.83;19.02;;;11.30;99.90;;;;;;5037988;28;20064;-89
2021/12/17 06:05:24;;;;;;;39.17;17.77;;;11.30;99.70;;;;;;5038643;28;20079;-89
2021/12/17 06:07:50;;;;;;;39.35;17.92;;;11.00;99.80;;;;;;5040330;28;20029;-89
2021/12/17 06:10:16;;;;;;;34.97;16.35;;;11.00;99.90;;;;;;5060026;28;20028;-88
2021/12/17 06:12:42;;;;;;;38.60;17.65;;;11.00;99.90;;;;;;5051686;28;20117;-88
2021/12/17 06:15:11;;;;;;;30.75;15.60;;;10.90;99.90;;;;;;5036755;28;20479;-90
2021/12/17 06:17:37;;;;;;;38.83;18.27;;;11.00;99.90;;;;;;5037468;28;20149;-90
2021/12/17 06:20:05;;;;;;;34.55;16.85;;;11.00;99.90;;;;;;5036991;28;20465;-88
2021/12/17 06:22:31;;;;;;;36.35;16.48;;;11.00;99.90;;;;;;5035900;28;20401;-86
2021/12/17 06:24:56;;;;;;;36.63;17.25;;;11.00;99.90;;;;;;5036396;28;20021;-89
2021/12/17 06:27:25;;;;;;;37.50;16.63;;;11.00;99.90;;;;;;5036540;28;20117;-86
2021/12/17 06:29:52;;;;;;;37.67;17.05;;;10.90;99.90;;;;;;5036097;28;20021;-79
2021/12/17 06:32:19;;;;;;;37.47;16.55;;;10.90;99.90;;;;;;5035345;28;20436;-79
2021/12/17 06:34:46;;;;;;;32.40;16.00;;;10.90;99.90;;;;;;5036224;28;20052;-91
2021/12/17 06:37:12;;;;;;;33.10;15.20;;;10.90;99.90;;;;;;5037488;28;20029;-91
2021/12/17 06:39:37;;;;;;;40.20;17.58;;;11.00;99.90;;;;;;5037121;28;20052;-91
2021/12/17 06:42:04;;;;;;;35.85;16.55;;;10.90;99.90;;;;;;5037157;28;20017;-90
2021/12/17 06:44:30;;;;;;;35.40;15.20;;;10.90;99.90;;;;;;5037066;28;20029;-90
2021/12/17 07:00:18;;;;;;;31.88;14.70;;;11.10;99.90;;;;;;5013826;28;20121;-88
2021/12/17 07:10:59;;;;;;;27.80;10.90;;;11.20;99.90;;;;;;5027055;28;20083;-84
2021/12/17 07:21:53;;;;;;;27.17;13.82;;;11.30;99.90;;;;;;5032454;28;20033;-78
2021/12/17 07:35:02;;;;;;;25.85;13.55;;;11.00;99.90;;;;;;5032644;28;20032;-77
2021/12/17 07:39:54;;;;;;;27.25;12.82;;;10.80;99.90;;;;;;5022978;28;20021;-78
2021/12/17 07:42:20;;;;;;;23.95;10.88;;;10.80;99.90;;;;;;5032876;28;20036;-77
2021/12/17 07:44:46;;;;;;;21.48;10.75;;;10.80;99.90;;;;;;5033770;28;20048;-79
2021/12/17 07:47:13;;;;;;;22.02;10.90;;;10.80;99.90;;;;;;5032915;28;20598;-78
2021/12/17 07:49:39;;;;;;;20.27;10.57;;;10.80;99.90;;;;;;5033429;28;20377;-79
2021/12/17 07:52:05;;;;;;;15.80;8.23;;;10.90;99.90;;;;;;5032307;28;20057;-79
2021/12/17 07:54:30;;;;;;;16.60;8.93;;;10.80;99.90;;;;;;5031792;28;20067;-78
2021/12/17 07:56:56;;;;;;;18.98;8.50;;;10.80;99.90;;;;;;5032195;28;20424;-79
2021/12/17 07:59:22;;;;;;;17.25;8.32;;;10.70;99.90;;;;;;5032203;28;20017;-79
2021/12/17 08:01:47;;;;;;;14.52;7.70;;;10.70;99.90;;;;;;5029184;28;20025;-78
2021/12/17 08:04:13;;;;;;;14.98;7.20;;;10.70;99.90;;;;;;5043457;28;20081;-77
2021/12/17 08:06:39;;;;;;;15.75;7.43;;;10.80;99.90;;;;;;5034076;28;20159;-79
2021/12/17 08:09:05;;;;;;;16.58;7.57;;;10.80;99.90;;;;;;5033560;28;20061;-78
2021/12/17 08:11:37;;;;;;;15.05;8.00;;;10.80;99.90;;;;;;5033389;28;20101;-78
2021/12/17 08:14:06;;;;;;;13.40;7.40;;;10.70;99.90;;;;;;5033908;28;20105;-80
2021/12/17 08:17:32;;;;;;;16.08;7.40;;;10.60;99.90;;;;;;5033857;28;20358;-80
2021/12/17 08:30:22;;;;;;;12.95;6.35;;;10.40;99.90;;;;;;5014178;28;20032;-86
2021/12/17 08:32:48;;;;;;;14.13;6.38;;;10.20;99.90;;;;;;5014994;28;20038;-81
2021/12/17 08:35:14;;;;;;;13.90;6.63;;;10.20;99.90;;;;;;5014290;28;20029;-81
2021/12/17 08:37:40;;;;;;;11.77;6.57;;;10.10;99.90;;;;;;5014613;28;20446;-85
2021/12/17 08:40:08;;;;;;;12.68;6.13;;;10.20;99.90;;;;;;5014036;28;20026;-85
2021/12/17 08:42:34;;;;;;;13.55;6.60;;;10.30;99.90;;;;;;5013574;28;20026;-76
2021/12/17 08:45:00;;;;;;;13.13;5.97;;;10.40;99.90;;;;;;5013756;28;20049;-77
2021/12/17 08:47:26;;;;;;;12.15;6.05;;;10.40;99.90;;;;;;5013303;28;20513;-76
2021/12/17 08:49:53;;;;;;;17.63;6.90;;;10.30;99.90;;;;;;5013616;28;20030;-75
2021/12/17 08:52:19;;;;;;;14.38;6.38;;;10.20;99.90;;;;;;5013332;28;20533;-77
2021/12/17 08:54:45;;;;;;;13.82;6.45;;;10.20;99.90;;;;;;5013518;28;20030;-77
2021/12/17 08:57:11;;;;;;;14.55;6.90;;;10.30;99.90;;;;;;5022725;28;20033;-78
2021/12/17 08:59:37;;;;;;;14.60;6.55;;;10.30;99.90;;;;;;5034908;28;20025;-79
2021/12/17 09:02:04;;;;;;;16.73;7.25;;;10.30;99.90;;;;;;5046071;28;20033;-78
2021/12/17 09:04:29;;;;;;;11.65;6.30;;;10.20;99.90;;;;;;5033457;28;20017;-77
2021/12/17 09:06:56;;;;;;;13.75;6.43;;;10.10;99.90;;;;;;5032568;28;20366;-77
2021/12/17 09:09:23;;;;;;;13.70;6.60;;;10.20;99.90;;;;;;5032691;28;20065;-77
2021/12/17 09:11:49;;;;;;;11.95;5.85;;;10.20;99.90;;;;;;5033393;28;20113;-82
2021/12/17 09:14:19;;;;;;;11.07;5.53;;;10.20;99.90;;;;;;5033374;28;20033;-81
2021/12/17 09:16:46;;;;;;;11.85;5.80;;;10.20;99.90;;;;;;5032719;28;20492;-79
2021/12/17 09:19:12;;;;;;;12.55;5.97;;;10.10;99.90;;;;;;5033382;28;20061;-78
2021/12/17 09:21:37;;;;;;;11.18;5.30;;;10.10;99.90;;;;;;5032501;28;20132;-80
2021/12/17 09:24:03;;;;;;;12.88;6.10;;;10.10;99.90;;;;;;5032759;28;20021;-80
2021/12/17 09:26:32;;;;;;;12.38;5.38;;;10.10;99.90;;;;;;5033070;28;20042;-79
2021/12/17 09:28:57;;;;;;;11.13;5.57;;;10.00;99.90;;;;;;5032771;28;20052;-79
2021/12/17 09:31:23;;;;;;;12.07;6.10;;;10.00;99.90;;;;;;5032867;28;20426;-77
2021/12/17 09:33:50;;;;;;;12.88;5.95;;;9.90;99.90;;;;;;5032922;28;20029;-76
2021/12/17 09:36:17;;;;;;;11.90;6.30;;;9.80;99.90;;;;;;5032804;28;20098;-77
2021/12/17 09:38:42;;;;;;;11.10;5.88;;;9.80;99.90;;;;;;5032980;28;20025;-76
2021/12/17 09:41:09;;;;;;;12.02;5.28;;;9.80;99.90;;;;;;5032615;28;20028;-77
2021/12/17 09:43:37;;;;;;;11.20;5.10;;;9.90;99.90;;;;;;5030688;28;20029;-77
2021/12/17 09:46:06;;;;;;;10.20;5.15;;;9.80;99.90;;;;;;5031806;28;20037;-77
2021/12/17 09:48:34;;;;;;;12.70;5.60;;;9.90;99.90;;;;;;5032544;28;20383;-77
2021/12/17 09:51:02;;;;;;;6.82;4.53;;;10.00;99.90;;;;;;5034440;28;20056;-77
2021/12/17 09:53:28;;;;;;;8.43;4.47;;;10.00;99.90;;;;;;5036425;28;20132;-77
2021/12/17 09:55:54;;;;;;;8.40;4.68;;;9.90;99.90;;;;;;5036320;28;20049;-77
2021/12/17 09:58:21;;;;;;;12.50;6.22;;;10.00;99.90;;;;;;5036380;28;20064;-77
2021/12/17 10:00:47;;;;;;;6.53;3.88;;;10.00;99.90;;;;;;5036101;28;20451;-76
2021/12/17 10:03:13;;;;;;;9.55;4.50;;;10.10;99.90;;;;;;5035894;28;20056;-77
2021/12/17 10:05:40;;;;;;;11.57;5.60;;;10.10;99.90;;;;;;5036572;28;20079;-77
2021/12/17 10:08:17;;;;;;;7.32;4.65;;;10.00;99.90;;;;;;5045147;28;20033;-77
2021/12/17 10:11:14;;;;;;;7.95;4.90;;;9.90;99.90;;;;;;5036101;28;20026;-77
2021/12/17 10:13:40;;;;;;;6.38;3.97;;;9.80;99.90;;;;;;5033476;28;20057;-77
2021/12/17 10:16:09;;;;;;;10.35;4.10;;;9.90;99.90;;;;;;5033543;28;20037;-77
2021/12/17 10:18:44;;;;;;;7.75;3.13;;;10.00;99.90;;;;;;5035036;28;20471;-77
2021/12/17 10:21:17;;;;;;;6.47;3.95;;;10.10;99.90;;;;;;5035796;28;20496;-75
2021/12/17 10:23:43;;;;;;;4.65;3.03;;;10.20;99.90;;;;;;5035930;28;20025;-75
2021/12/17 10:26:17;;;;;;;4.28;3.20;;;10.30;99.90;;;;;;5034631;28;20045;-76
2021/12/17 10:29:00;;;;;;;6.05;3.67;;;10.20;99.90;;;;;;5035371;28;20033;-76
2021/12/17 10:31:27;;;;;;;6.97;3.33;;;10.10;99.90;;;;;;5035426;28;20029;-76
2021/12/17 10:33:55;;;;;;;8.15;3.70;;;10.00;99.90;;;;;;5034969;28;20033;-76
2021/12/17 10:36:34;;;;;;;4.53;3.10;;;10.10;99.90;;;;;;5034883;28;20032;-76
2021/12/17 10:39:11;;;;;;;5.45;2.65;;;10.10;99.90;;;;;;5035436;28;20029;-76
2021/12/17 10:41:47;;;;;;;2.90;1.95;;;10.30;99.90;;;;;;5035742;28;20028;-77
2021/12/17 10:44:13;;;;;;;4.05;1.98;;;10.20;99.90;;;;;;5035087;28;20033;-77
2021/12/17 10:46:56;;;;;;;4.30;1.60;;;10.20;99.90;;;;;;5034971;28;20041;-77
2021/12/17 10:49:25;;;;;;;3.22;1.85;;;10.20;99.90;;;;;;5034656;28;20032;-77
2021/12/17 10:52:06;;;;;;;4.82;1.65;;;10.10;99.90;;;;;;5034624;28;20116;-76
2021/12/17 10:54:33;;;;;;;2.88;1.80;;;10.10;99.90;;;;;;5034417;28;20029;-77
2021/12/17 10:56:59;;;;;;;3.90;1.73;;;10.20;99.90;;;;;;5033688;28;20033;-75
2021/12/17 10:59:27;;;;;;;3.38;1.50;;;10.20;99.90;;;;;;5034734;28;20032;-76
2021/12/17 11:02:07;;;;;;;8.07;2.05;;;10.20;99.90;;;;;;5034594;28;20081;-76
2021/12/17 11:04:43;;;;;;;4.30;1.50;;;10.20;99.90;;;;;;5039672;28;20025;-76
2021/12/17 11:07:20;;;;;;;4.38;1.60;;;10.40;99.90;;;;;;5033178;28;20124;-76
2021/12/17 11:09:57;;;;;;;3.92;1.75;;;10.40;99.90;;;;;;5031879;28;20472;-75
2021/12/17 11:12:24;;;;;;;4.82;2.00;;;10.30;99.90;;;;;;5035014;28;20083;-76
2021/12/17 11:14:50;;;;;;;4.70;1.98;;;10.30;99.90;;;;;;5034941;28;20030;-78
2021/12/17 11:17:20;;;;;;;3.95;1.38;;;10.30;99.90;;;;;;5035107;28;20492;-82
2021/12/17 11:19:48;;;;;;;3.92;1.92;;;10.10;99.90;;;;;;5034583;28;20120;-81
2021/12/17 11:22:14;;;;;;;4.60;2.00;;;10.10;99.90;;;;;;5033758;28;20033;-82
2021/12/17 11:24:39;;;;;;;4.63;2.17;;;10.00;99.90;;;;;;5033774;28;20443;-80
2021/12/17 11:27:07;;;;;;;5.80;2.70;;;10.00;99.90;;;;;;5032838;28;20399;-79
2021/12/17 11:29:33;;;;;;;3.95;2.03;;;10.00;99.90;;;;;;5033418;28;20029;-83
2021/12/17 11:32:00;;;;;;;3.30;1.90;;;9.90;99.90;;;;;;5033936;28;20053;-88
2021/12/17 11:34:27;;;;;;;4.32;2.25;;;9.90;99.90;;;;;;5033255;28;20025;-80
2021/12/17 11:36:53;;;;;;;2.92;1.75;;;9.90;99.90;;;;;;5030966;28;20109;-77
2021/12/17 11:39:24;;;;;;;5.03;1.92;;;10.00;99.90;;;;;;5033355;28;20108;-79
2021/12/17 11:42:29;;;;;;;3.63;1.80;;;10.00;99.90;;;;;;5032908;28;20033;-78
2021/12/17 11:47:46;;;;;;;3.42;1.75;;;10.00;99.90;;;;;;5032889;28;20036;-81
2021/12/17 11:50:17;;;;;;;1.90;1.23;;;10.10;99.90;;;;;;5031007;28;20040;-81
2021/12/17 11:52:46;;;;;;;5.72;1.50;;;10.20;99.90;;;;;;5033142;28;20092;-82
2021/12/17 11:55:21;;;;;;;2.92;1.80;;;10.30;99.90;;;;;;5032626;28;20476;-79
2021/12/17 11:57:49;;;;;;;3.00;1.35;;;10.20;99.90;;;;;;5032165;28;20030;-79
2021/12/17 12:00:16;;;;;;;4.03;1.40;;;10.20;99.90;;;;;;5033006;28;20472;-76
2021/12/17 12:02:50;;;;;;;2.33;1.13;;;10.20;99.90;;;;;;5038657;28;20037;-75
2021/12/17 12:05:36;;;;;;;3.33;0.93;;;10.20;99.90;;;;;;5031632;28;20087;-77
2021/12/17 12:08:30;;;;;;;6.32;1.63;;;10.20;99.90;;;;;;5031006;28;20504;-76
2021/12/17 12:11:10;;;;;;;3.47;0.82;;;10.40;99.90;;;;;;5031333;28;20041;-77
2021/12/17 12:13:43;;;;;;;2.45;0.80;;;10.40;99.90;;;;;;5030422;28;20064;-77
2021/12/17 12:16:12;;;;;;;1.85;0.70;;;10.50;99.90;;;;;;5030648;28;20029;-79
2021/12/17 12:18:43;;;;;;;2.60;0.50;;;10.50;99.80;;;;;;5031887;28;20550;-79
2021/12/17 12:21:11;;;;;;;6.20;0.70;;;10.50;99.50;;;;;;5031381;28;20029;-78
2021/12/17 12:23:42;;;;;;;2.22;0.50;;;10.60;99.60;;;;;;5029569;28;20033;-82
2021/12/17 12:26:21;;;;;;;1.85;0.60;;;10.60;99.40;;;;;;5030008;28;20032;-82
2021/12/17 12:28:50;;;;;;;2.45;0.55;;;10.70;99.50;;;;;;5028916;28;20040;-79
2021/12/17 12:31:24;;;;;;;0.95;0.45;;;10.80;98.90;;;;;;5030987;28;20064;-78
2021/12/17 12:34:08;;;;;;;2.60;0.68;;;10.80;98.90;;;;;;5029086;28;20056;-78
2021/12/17 12:36:58;;;;;;;2.05;0.40;;;10.90;98.90;;;;;;5031217;28;20040;-78
2021/12/17 12:39:55;;;;;;;1.60;0.52;;;10.80;97.90;;;;;;5030343;28;20022;-78
2021/12/17 12:42:32;;;;;;;3.38;0.70;;;10.70;97.70;;;;;;5031816;28;20040;-78
2021/12/17 12:44:57;;;;;;;0.82;0.55;;;10.70;98.20;;;;;;5031559;28;20026;-77
2021/12/17 12:47:26;;;;;;;2.35;0.63;;;10.80;98.00;;;;;;5029237;28;20499;-76
2021/12/17 12:49:56;;;;;;;1.25;0.52;;;10.80;97.90;;;;;;5030259;28;20059;-76
2021/12/17 12:52:45;;;;;;;1.73;0.60;;;10.80;98.00;;;;;;5029478;28;20068;-78
2021/12/17 12:55:29;;;;;;;1.30;0.45;;;10.90;97.90;;;;;;5031990;28;20064;-79
2021/12/17 12:57:57;;;;;;;1.00;0.68;;;10.80;97.00;;;;;;5039152;28;20037;-80
2021/12/17 13:00:23;;;;;;;2.85;0.93;;;10.80;97.00;;;;;;5046967;28;20337;-80
2021/12/17 13:02:57;;;;;;;2.25;0.60;;;10.80;97.30;;;;;;5032806;28;20032;-80
2021/12/17 13:05:24;;;;;;;2.88;0.80;;;10.80;97.00;;;;;;5032445;28;20067;-78
2021/12/17 13:07:55;;;;;;;2.53;0.52;;;10.80;97.00;;;;;;5029433;28;20061;-78
2021/12/17 13:10:39;;;;;;;2.75;0.60;;;10.80;97.00;;;;;;5031616;28;20385;-78
2021/12/17 13:22:29;;;;;;;2.00;0.93;;;11.20;97.80;;;;;;5028693;28;20041;-79
2021/12/17 13:24:36;;;;;;;1.05;0.60;;;11.20;96.90;;;;;;5025916;28;20504;-79
2021/12/17 13:27:10;;;;;;;2.78;0.90;;;11.20;96.50;;;;;;5033135;28;20476;-83
2021/12/17 13:29:38;;;;;;;2.55;0.80;;;11.10;96.80;;;;;;5033184;28;20579;-80
2021/12/17 13:32:16;;;;;;;3.90;0.70;;;11.10;96.90;;;;;;5032845;28;20041;-83
2021/12/17 13:34:55;;;;;;;3.58;1.10;;;11.10;96.90;;;;;;5033731;28;20044;-81
2021/12/17 13:37:21;;;;;;;1.15;0.60;;;11.10;96.70;;;;;;5033478;28;20033;-83
2021/12/17 13:39:54;;;;;;;1.85;0.80;;;11.00;96.70;;;;;;5030743;28;20107;-83
2021/12/17 13:42:29;;;;;;;3.17;1.23;;;11.00;97.00;;;;;;5031443;28;20040;-82
2021/12/17 13:44:59;;;;;;;2.30;1.25;;;11.00;97.30;;;;;;5033335;28;20018;-82
2021/12/17 13:47:28;;;;;;;3.08;0.90;;;11.10;97.30;;;;;;5034562;28;20443;-81
2021/12/17 13:50:12;;;;;;;4.70;1.50;;;11.00;97.00;;;;;;5034663;28;20029;-78
2021/12/17 13:52:54;;;;;;;3.13;1.15;;;11.10;97.30;;;;;;5037056;28;20052;-87
2021/12/17 13:55:27;;;;;;;6.07;1.38;;;11.10;96.80;;;;;;5051879;28;20056;-86
2021/12/17 13:57:53;;;;;;;2.60;1.23;;;11.00;96.70;;;;;;5044009;28;20021;-86
2021/12/17 14:00:23;;;;;;;3.08;1.65;;;11.10;97.20;;;;;;5037181;28;20345;-84
2021/12/17 14:02:50;;;;;;;5.32;1.65;;;11.20;97.10;;;;;;5034869;28;20022;-85
2021/12/17 14:05:26;;;;;;;5.57;1.40;;;11.00;96.80;;;;;;5035156;28;20443;-84
2021/12/17 14:07:57;;;;;;;3.03;1.10;;;10.90;96.90;;;;;;5029871;28;20037;-84
2021/12/17 14:10:35;;;;;;;3.25;1.48;;;10.80;97.30;;;;;;5034500;28;20017;-81
2021/12/17 14:13:02;;;;;;;5.47;1.45;;;10.90;97.60;;;;;;5034195;28;20487;-82
2021/12/17 14:15:30;;;;;;;4.00;1.92;;;11.00;97.70;;;;;;5034915;28;20056;-82
2021/12/17 14:17:59;;;;;;;3.50;1.63;;;11.00;97.50;;;;;;5034726;28;20032;-81
2021/12/17 14:20:28;;;;;;;2.80;1.60;;;11.00;97.30;;;;;;5033966;28;20419;-87
2021/12/17 14:22:59;;;;;;;5.47;2.42;;;10.90;97.00;;;;;;5034742;28;20443;-81
2021/12/17 14:25:32;;;;;;;3.72;2.35;;;10.80;97.40;;;;;;5034706;28;20030;-80
2021/12/17 14:28:01;;;;;;;2.67;1.58;;;10.70;97.70;;;;;;5030484;28;20046;-80
2021/12/17 14:30:35;;;;;;;3.97;2.00;;;10.90;97.90;;;;;;5034197;28;20036;-80
2021/12/17 14:33:18;;;;;;;2.75;2.03;;;10.90;97.40;;;;;;5033765;28;20025;-83
2021/12/17 14:35:58;;;;;;;4.82;1.60;;;10.80;97.30;;;;;;5033967;28;20056;-81
2021/12/17 14:39:10;;;;;;;3.70;2.35;;;10.70;97.60;;;;;;5031889;28;20025;-79
2021/12/17 14:41:52;;;;;;;4.97;2.38;;;10.70;97.70;;;;;;5032309;28;20034;-79
2021/12/17 14:47:08;;;;;;;5.13;2.03;;;10.80;97.80;;;;;;5034290;28;20369;-78
2021/12/17 15:05:58;;;;;;;3.78;2.70;;;10.90;98.30;;;;;;5031253;28;20063;-84
2021/12/17 15:08:25;;;;;;;5.45;2.40;;;11.10;97.70;;;;;;5031616;28;20535;-84
2021/12/17 15:10:52;;;;;;;4.65;2.20;;;11.00;97.20;;;;;;5034256;28;20073;-85
2021/12/17 15:13:18;;;;;;;5.35;2.40;;;11.00;97.40;;;;;;5033939;28;20032;-84
2021/12/17 15:15:44;;;;;;;5.05;2.30;;;11.10;97.50;;;;;;5034667;28;20021;-85
2021/12/17 15:18:17;;;;;;;3.30;1.50;;;11.10;97.60;;;;;;5034497;28;20021;-88
2021/12/17 15:20:44;;;;;;;6.18;2.45;;;11.20;97.40;;;;;;5033708;28;20543;-90
2021/12/17 15:23:10;;;;;;;6.28;2.42;;;11.30;97.60;;;;;;5034451;28;20022;-84
2021/12/17 15:25:38;;;;;;;7.38;2.65;;;11.30;97.30;;;;;;5033625;28;20033;-81
2021/12/17 15:28:05;;;;;;;4.20;2.10;;;11.30;97.00;;;;;;5033136;28;20033;-83
2021/12/17 15:30:40;;;;;;;6.43;2.35;;;11.40;97.00;;;;;;5033170;28;20376;-79
2021/12/17 15:33:10;;;;;;;3.03;2.20;;;11.40;96.80;;;;;;5032997;28;20026;-80
2021/12/17 15:35:36;;;;;;;2.63;1.85;;;11.40;96.70;;;;;;5034163;28;20029;-86
2021/12/17 15:38:07;;;;;;;6.55;2.42;;;11.40;96.90;;;;;;5033757;28;20022;-81
2021/12/17 15:40:34;;;;;;;5.22;2.20;;;11.40;97.00;;;;;;5033069;28;20026;-80
2021/12/17 15:43:02;;;;;;;4.38;2.47;;;11.40;97.20;;;;;;5033194;28;20025;-79
2021/12/17 15:45:47;;;;;;;5.47;3.00;;;11.50;97.20;;;;;;5041430;28;20059;-81
2021/12/17 15:48:15;;;;;;;6.90;3.00;;;11.40;96.70;;;;;;5020130;28;20037;-89
2021/12/17 15:50:41;;;;;;;3.65;2.70;;;11.40;96.60;;;;;;5033873;28;20040;-80
2021/12/17 15:53:08;;;;;;;3.90;3.08;;;11.30;96.60;;;;;;5032343;28;20049;-85
2021/12/17 15:55:34;;;;;;;4.60;3.25;;;11.30;96.80;;;;;;5030501;28;20026;-83
2021/12/17 15:58:01;;;;;;;5.25;3.22;;;11.20;96.70;;;;;;5032410;28;20025;-86
2021/12/17 16:00:32;;;;;;;4.75;3.72;;;11.10;96.70;;;;;;5032713;28;20071;-79
2021/12/17 16:02:58;;;;;;;6.93;4.00;;;11.10;96.80;;;;;;5033212;28;20040;-86
2021/12/17 16:05:25;;;;;;;5.30;3.75;;;11.10;96.80;;;;;;5029981;28;20052;-84